Time;durP1;ratioP1;P1;durP2;ratioP2;P2;SDS_P1;SDS_P2;PMS_P1;PMS_P2;Temp;Humidity;BMP_temperature;BMP_pressure;BME280_temperature;BME280_humidity;BME280_pressure;Samples;Min_cycle;Max_cycle;Signal;HPM_P1;HPM_P2
2022/04/22 00:00:57;;;;;;;40.58;37.53;;;;;;;6.38;100.00;100951.31;4974545;28;20051;-87
2022/04/22 00:03:24;;;;;;;42.30;39.20;;;;;;;6.51;100.00;100950.78;4976473;28;20397;-85
2022/04/22 00:05:50;;;;;;;37.90;35.00;;;;;;;6.36;100.00;100938.31;4971893;28;20067;-86
2022/04/22 00:08:18;;;;;;;35.80;33.25;;;;;;;6.39;100.00;100945.06;4969619;28;20409;-84
2022/04/22 00:13:26;;;;;;;35.53;33.03;;;;;;;6.49;100.00;100937.72;4975154;28;20106;-88
2022/04/22 00:15:58;;;;;;;37.97;35.40;;;;;;;6.51;100.00;100942.84;4975433;28;20062;-86
2022/04/22 00:18:25;;;;;;;37.85;34.92;;;;;;;6.38;100.00;100948.66;4975995;28;20051;-83
2022/04/22 00:20:52;;;;;;;35.60;32.78;;;;;;;6.35;100.00;100951.66;4975984;28;20520;-87
2022/04/22 00:23:21;;;;;;;34.60;32.00;;;;;;;6.18;100.00;100954.38;4965430;28;20106;-85
2022/04/22 00:25:48;;;;;;;35.88;33.17;;;;;;;6.34;100.00;100955.28;4961600;28;20059;-84
2022/04/22 00:28:16;;;;;;;33.28;30.88;;;;;;;6.32;100.00;100955.44;4969293;28;20489;-85
2022/04/22 00:30:49;;;;;;;32.80;30.27;;;;;;;6.45;100.00;100949.63;4975724;28;20448;-88
2022/04/22 00:33:18;;;;;;;32.20;29.83;;;;;;;6.51;100.00;100948.94;4975506;28;20065;-85
2022/04/22 00:35:48;;;;;;;36.20;33.47;;;;;;;6.89;100.00;100946.38;4975503;28;20051;-83
2022/04/22 00:38:15;;;;;;;39.08;36.13;;;;;;;6.78;100.00;100957.38;4974416;28;20047;-87
2022/04/22 00:40:42;;;;;;;35.80;33.13;;;;;;;6.79;100.00;100951.09;4969955;28;20061;-85
2022/04/22 00:43:21;;;;;;;40.05;37.10;;;;;;;6.60;100.00;100953.19;4974715;28;20479;-82
2022/04/22 00:45:47;;;;;;;35.88;33.17;;;;;;;6.85;100.00;100955.66;4989695;23;20034;-90
2022/04/22 00:48:15;;;;;;;39.97;36.80;;;;;;;7.02;100.00;100959.84;4966906;28;20061;-90
2022/04/22 00:50:44;;;;;;;40.55;37.63;;;;;;;6.98;100.00;100955.88;4967854;28;20046;-90
2022/04/22 00:53:11;;;;;;;39.45;36.25;;;;;;;7.14;100.00;100948.84;4968989;28;20050;-90
2022/04/22 00:55:41;;;;;;;40.85;38.05;;;;;;;7.04;100.00;100949.09;4965490;28;20133;-90
2022/04/22 00:58:08;;;;;;;42.47;39.47;;;;;;;6.96;100.00;100943.84;4964838;28;20055;-90
2022/04/22 01:00:36;;;;;;;41.88;38.90;;;;;;;6.92;100.00;100945.22;4967685;28;20054;-90
2022/04/22 01:03:03;;;;;;;38.75;35.58;;;;;;;7.22;100.00;100932.94;4967204;28;20109;-90
2022/04/22 01:11:03;;;;;;;38.85;36.25;;;;;;;7.15;100.00;100935.47;4971157;28;20129;-89
2022/04/22 01:13:30;;;;;;;37.25;34.53;;;;;;;7.10;100.00;100930.69;4964654;28;20055;-90
2022/04/22 01:15:57;;;;;;;42.33;38.83;;;;;;;7.14;100.00;100933.00;4970290;28;20057;-90
2022/04/22 01:18:24;;;;;;;42.22;38.53;;;;;;;7.17;100.00;100924.72;4969239;28;20055;-90
2022/04/22 01:20:51;;;;;;;38.35;35.63;;;;;;;7.23;100.00;100939.84;4970582;28;20050;-90
2022/04/22 01:23:20;;;;;;;39.92;37.13;;;;;;;7.25;100.00;100929.94;4967224;28;20058;-90
2022/04/22 01:25:46;;;;;;;40.85;38.00;;;;;;;7.30;100.00;100927.56;4964282;28;20047;-90
2022/04/22 01:28:14;;;;;;;45.22;41.83;;;;;;;7.32;100.00;100930.84;4964975;28;20047;-90
2022/04/22 01:30:41;;;;;;;39.28;36.33;;;;;;;7.36;100.00;100921.56;4965004;28;20058;-90
2022/04/22 01:33:08;;;;;;;39.67;36.65;;;;;;;7.50;100.00;100915.50;4973565;28;20406;-91
2022/04/22 01:35:37;;;;;;;42.00;38.58;;;;;;;7.66;100.00;100918.97;4971035;28;20054;-90
2022/04/22 01:38:04;;;;;;;39.72;36.40;;;;;;;7.73;100.00;100928.63;4973791;28;20057;-90
2022/04/22 01:40:33;;;;;;;40.08;37.03;;;;;;;7.73;100.00;100920.69;4970821;28;20043;-91
2022/04/22 01:43:00;;;;;;;38.20;35.47;;;;;;;7.82;100.00;100913.50;4973509;28;20046;-90
2022/04/22 01:45:27;;;;;;;41.08;37.88;;;;;;;7.36;100.00;100913.66;4973630;28;20062;-90
2022/04/22 01:47:54;;;;;;;44.13;40.92;;;;;;;7.56;100.00;100911.28;4974490;28;20055;-90
2022/04/22 01:50:21;;;;;;;40.92;38.15;;;;;;;7.63;100.00;100920.16;4973806;28;20047;-90
2022/04/22 01:52:49;;;;;;;39.90;36.88;;;;;;;7.76;100.00;100916.88;4968948;28;20049;-89
2022/04/22 01:55:15;;;;;;;45.10;42.30;;;;;;;7.83;100.00;100911.66;4973164;28;20047;-90
2022/04/22 01:57:44;;;;;;;46.83;43.40;;;;;;;7.80;100.00;100904.91;4969165;28;20046;-90
2022/04/22 02:02:48;;;;;;;43.40;40.15;;;;;;;7.83;100.00;100907.19;4967309;23;20075;-89
2022/04/22 02:05:15;;;;;;;45.38;42.45;;;;;;;7.80;100.00;100903.09;4947817;29;20059;-88
2022/04/22 02:07:42;;;;;;;50.38;46.50;;;;;;;7.70;100.00;100896.44;4936426;29;20509;-88
2022/04/22 02:10:09;;;;;;;72.38;63.97;;;;;;;7.75;100.00;100896.72;4939585;29;20050;-89
2022/04/22 02:12:36;;;;;;;61.97;55.65;;;;;;;7.74;100.00;100892.44;4943642;29;20051;-89
2022/04/22 02:15:06;;;;;;;47.72;43.83;;;;;;;7.76;100.00;100891.25;4940114;29;20062;-89
2022/04/22 02:17:32;;;;;;;62.60;56.53;;;;;;;7.80;100.00;100886.41;4936185;29;20048;-88
2022/04/22 02:20:01;;;;;;;37.85;35.15;;;;;;;7.82;100.00;100888.88;4939079;29;20530;-88
2022/04/22 02:22:30;;;;;;;49.25;45.10;;;;;;;7.75;100.00;100889.63;4937068;28;20428;-89
2022/04/22 02:24:57;;;;;;;42.03;39.47;;;;;;;7.79;100.00;100879.47;4942615;28;20047;-89
2022/04/22 02:30:11;;;;;;;44.30;41.10;;;;;;;7.96;100.00;100886.22;4941145;29;20155;-89
2022/04/22 02:32:38;;;;;;;44.95;41.35;;;;;;;7.85;100.00;100880.59;4937807;29;20044;-89
2022/04/22 02:35:06;;;;;;;50.67;46.88;;;;;;;7.87;100.00;100884.69;4939944;29;20048;-89
2022/04/22 02:37:32;;;;;;;42.80;39.90;;;;;;;7.33;100.00;100885.75;4929674;29;20513;-88
2022/04/22 02:40:01;;;;;;;37.42;34.83;;;;;;;7.67;100.00;100883.59;4943407;29;20040;-88
2022/04/22 02:45:28;;;;;;;38.53;36.03;;;;;;;7.83;100.00;100878.09;4941207;29;20588;-89
2022/04/22 02:47:56;;;;;;;37.10;34.60;;;;;;;7.83;100.00;100887.88;4941048;29;20047;-89
2022/04/22 02:50:25;;;;;;;44.65;41.45;;;;;;;7.78;100.00;100883.97;4934197;29;20051;-89
2022/04/22 02:52:52;;;;;;;42.55;39.58;;;;;;;7.67;100.00;100887.06;4947972;29;20059;-89
2022/04/22 02:55:19;;;;;;;43.70;40.50;;;;;;;7.58;100.00;100880.22;4942015;29;20137;-89
2022/04/22 02:57:46;;;;;;;50.22;45.83;;;;;;;7.66;100.00;100888.06;4939198;29;20052;-89
2022/04/22 03:00:15;;;;;;;43.63;40.10;;;;;;;7.81;100.00;100890.72;4941214;29;20112;-89
2022/04/22 03:02:43;;;;;;;40.33;37.58;;;;;;;7.69;100.00;100877.13;4940689;29;20434;-90
2022/04/22 03:05:10;;;;;;;34.72;32.33;;;;;;;7.86;100.00;100875.09;4943569;29;20051;-89
2022/04/22 03:07:38;;;;;;;40.38;37.58;;;;;;;7.77;100.00;100871.72;4938021;29;20067;-89
2022/04/22 03:10:08;;;;;;;45.35;41.65;;;;;;;7.80;100.00;100871.34;4937620;29;20395;-89
2022/04/22 03:12:35;;;;;;;50.05;45.40;;;;;;;7.84;100.00;100876.28;4945964;29;20147;-89
2022/04/22 03:15:02;;;;;;;38.92;36.13;;;;;;;7.43;100.00;100880.22;4946855;29;20055;-89
2022/04/22 03:17:30;;;;;;;39.28;36.42;;;;;;;7.75;100.00;100886.16;4947242;29;20509;-88
2022/04/22 03:19:58;;;;;;;35.17;32.67;;;;;;;7.75;100.00;100873.75;4954076;29;20043;-89
2022/04/22 03:22:26;;;;;;;36.83;34.17;;;;;;;7.67;100.00;100880.94;4941061;29;20058;-89
2022/04/22 03:24:56;;;;;;;38.05;35.15;;;;;;;7.68;100.00;100877.28;4937511;29;20052;-88
2022/04/22 03:27:22;;;;;;;38.47;35.53;;;;;;;7.67;100.00;100881.75;4937117;29;20063;-89
2022/04/22 03:29:49;;;;;;;44.90;40.97;;;;;;;7.78;100.00;100880.50;4944669;29;20055;-89
2022/04/22 03:32:18;;;;;;;38.10;35.10;;;;;;;7.62;100.00;100870.09;4947723;29;20505;-89
2022/04/22 03:34:46;;;;;;;39.00;35.85;;;;;;;7.66;100.00;100876.69;4930952;29;20127;-90
2022/04/22 03:37:13;;;;;;;36.97;34.08;;;;;;;7.54;100.00;100863.91;4945479;29;20044;-89
2022/04/22 03:39:40;;;;;;;36.88;34.08;;;;;;;7.56;100.00;100867.19;4932039;29;20056;-89
2022/04/22 03:42:09;;;;;;;39.83;36.72;;;;;;;7.72;100.00;100878.59;4945962;29;20049;-89
2022/04/22 03:44:37;;;;;;;36.75;33.75;;;;;;;7.67;100.00;100871.19;4946247;29;20090;-89
2022/04/22 03:47:07;;;;;;;36.15;33.22;;;;;;;7.81;100.00;100869.56;4943336;29;20044;-90
2022/04/22 03:49:35;;;;;;;36.08;33.20;;;;;;;7.74;100.00;100869.44;4952334;29;20047;-89
2022/04/22 03:52:04;;;;;;;36.92;33.72;;;;;;;7.77;100.00;100863.78;4939887;29;20059;-90
2022/04/22 03:54:31;;;;;;;36.38;33.33;;;;;;;7.79;100.00;100866.25;4946327;29;20402;-89
2022/04/22 03:59:42;;;;;;;35.08;32.17;;;;;;;7.61;100.00;100869.28;4940474;29;20047;-89
2022/04/22 04:02:08;;;;;;;34.22;31.40;;;;;;;7.64;100.00;100883.97;4932293;28;20056;-90
2022/04/22 04:04:35;;;;;;;33.88;31.00;;;;;;;7.78;100.00;100881.31;4938355;29;20047;-89
2022/04/22 04:07:04;;;;;;;34.38;31.77;;;;;;;7.91;100.00;100874.56;4945720;28;20062;-88
2022/04/22 04:17:43;;;;;;;37.55;34.45;;;;;;;8.05;100.00;100871.06;4941377;29;20528;-89
2022/04/22 04:23:16;;;;;;;36.60;33.50;;;;;;;8.19;100.00;100866.75;4941227;29;20055;-89
2022/04/22 04:25:50;;;;;;;36.83;33.67;;;;;;;8.24;100.00;100873.13;4946945;29;20051;-89
2022/04/22 04:28:17;;;;;;;34.42;31.65;;;;;;;8.12;100.00;100876.44;4946514;29;20047;-89
2022/04/22 04:30:45;;;;;;;36.90;33.97;;;;;;;8.10;100.00;100871.31;4946332;29;20055;-89
2022/04/22 04:33:12;;;;;;;35.40;32.50;;;;;;;8.36;100.00;100867.34;4930865;29;20058;-89
2022/04/22 04:35:40;;;;;;;35.45;32.42;;;;;;;8.01;100.00;100864.50;4941696;29;20055;-89
2022/04/22 04:38:08;;;;;;;36.38;33.25;;;;;;;8.18;100.00;100862.47;4934852;29;20126;-89
2022/04/22 04:40:36;;;;;;;41.67;37.67;;;;;;;8.17;100.00;100855.50;4932272;29;20135;-88
2022/04/22 04:43:03;;;;;;;44.95;40.40;;;;;;;8.33;100.00;100867.72;4941266;29;20135;-88
2022/04/22 04:45:32;;;;;;;39.00;35.60;;;;;;;8.25;100.00;100866.81;4946662;29;20054;-89
2022/04/22 04:47:59;;;;;;;38.25;34.88;;;;;;;8.28;100.00;100855.03;4943953;29;20130;-88
2022/04/22 04:50:29;;;;;;;34.33;31.20;;;;;;;8.16;100.00;100862.63;4933886;29;20051;-90
2022/04/22 04:52:56;;;;;;;36.47;33.55;;;;;;;8.36;100.00;100856.75;4941472;29;20132;-89
2022/04/22 04:55:27;;;;;;;59.88;47.85;;;;;;;8.38;100.00;100850.31;4945733;29;20051;-89
2022/04/22 04:57:54;;;;;;;167.18;97.07;;;;;;;8.57;100.00;100842.75;4902403;29;20143;-89
2022/04/22 05:03:09;;;;;;;95.63;62.92;;;;;;;8.21;100.00;100848.84;4946818;29;20051;-90
2022/04/22 05:05:36;;;;;;;48.58;42.47;;;;;;;8.34;100.00;100859.56;4946420;28;20490;-90
2022/04/22 05:08:13;;;;;;;44.10;39.65;;;;;;;8.42;100.00;100867.44;4941517;29;20055;-91
2022/04/22 05:10:47;;;;;;;36.35;33.28;;;;;;;8.79;100.00;100868.19;4938415;28;20048;-89
2022/04/22 05:13:14;;;;;;;35.58;32.50;;;;;;;8.62;100.00;100875.59;4585461;29;9999766;-89
2022/04/22 05:15:45;;;;;;;33.17;30.20;;;;;;;8.74;100.00;100862.63;4929398;29;20054;-89
2022/04/22 05:18:13;;;;;;;38.67;35.25;;;;;;;8.73;100.00;100871.59;4926118;29;20422;-90
2022/04/22 05:20:41;;;;;;;33.03;30.40;;;;;;;8.62;100.00;100880.88;4926912;29;20044;-88
2022/04/22 05:23:16;;;;;;;31.08;28.92;;;;;;;8.77;100.00;100883.44;4929370;29;20213;-89
2022/04/22 05:25:45;;;;;;;32.33;29.83;;;;;;;8.91;100.00;100884.41;4939173;29;20536;-89
2022/04/22 05:28:11;;;;;;;33.60;31.10;;;;;;;8.97;100.00;100894.22;4945086;29;20058;-90
2022/04/22 05:33:23;;;;;;;34.50;32.10;;;;;;;8.99;100.00;100897.50;4935094;29;20046;-90
2022/04/22 05:35:54;;;;;;;38.42;35.40;;;;;;;8.94;100.00;100887.47;4940153;29;20040;-89
2022/04/22 05:38:25;;;;;;;37.33;34.17;;;;;;;9.15;100.00;100889.28;4937787;29;20422;-89
2022/04/22 05:40:53;;;;;;;37.60;34.30;;;;;;;9.05;100.00;100902.03;4937808;29;20057;-89
2022/04/22 05:43:20;;;;;;;51.58;40.47;;;;;;;9.09;100.00;100908.59;4943479;29;20054;-89
2022/04/22 05:45:49;;;;;;;48.58;42.00;;;;;;;8.99;100.00;100894.88;4944659;29;20051;-90
2022/04/22 05:48:19;;;;;;;49.17;43.75;;;;;;;9.08;100.00;100890.25;4935417;29;20079;-88
2022/04/22 05:50:50;;;;;;;46.97;42.10;;;;;;;8.94;100.00;100890.13;4940555;29;20055;-89
2022/04/22 05:53:19;;;;;;;44.42;39.47;;;;;;;8.82;100.00;100878.41;4942942;29;20043;-89
2022/04/22 05:55:46;;;;;;;45.75;40.85;;;;;;;9.11;100.00;100869.47;4937489;29;20059;-90
2022/04/22 05:58:14;;;;;;;72.65;47.78;;;;;;;9.04;100.00;100847.41;4943803;29;20039;-90
2022/04/22 06:00:41;;;;;;;67.13;44.55;;;;;;;8.88;100.00;100866.22;4935601;29;20126;-90
2022/04/22 06:03:08;;;;;;;47.80;39.85;;;;;;;9.00;100.00;100882.44;4934589;29;20052;-89
2022/04/22 06:05:36;;;;;;;48.45;42.22;;;;;;;8.95;100.00;100906.84;4937186;29;20062;-88
2022/04/22 06:13:28;;;;;;;33.53;30.63;;;;;;;9.27;100.00;100936.47;4970303;23;20062;-89
2022/04/22 06:15:55;;;;;;;32.85;30.30;;;;;;;9.12;100.00;100952.44;4953519;28;20053;-89
2022/04/22 06:18:23;;;;;;;33.47;30.88;;;;;;;9.21;100.00;100961.09;4947507;28;20051;-89
2022/04/22 06:20:51;;;;;;;31.70;29.27;;;;;;;9.21;100.00;100991.06;4943948;29;20050;-90
2022/04/22 06:23:18;;;;;;;30.88;28.52;;;;;;;9.42;100.00;100998.16;4562241;28;10000172;-89
2022/04/22 06:25:50;;;;;;;40.33;36.72;;;;;;;9.32;100.00;100987.06;4943958;28;20058;-89
2022/04/22 06:28:17;;;;;;;49.42;44.90;;;;;;;9.35;100.00;100989.34;4944992;29;20054;-88
2022/04/22 06:30:50;;;;;;;34.10;31.13;;;;;;;9.33;100.00;100997.47;4945982;29;20059;-88
2022/04/22 06:33:19;;;;;;;33.85;30.73;;;;;;;9.35;100.00;100995.47;4948759;29;20055;-89
2022/04/22 06:35:46;;;;;;;33.65;30.52;;;;;;;9.38;100.00;101000.38;4947856;28;20051;-88
2022/04/22 06:38:17;;;;;;;35.22;31.92;;;;;;;9.25;100.00;100994.94;4949080;29;20509;-89
2022/04/22 06:46:17;;;;;;;39.58;35.72;;;;;;;9.38;100.00;100999.56;4946645;29;20075;-89
2022/04/22 06:48:51;;;;;;;40.97;36.85;;;;;;;9.50;100.00;100992.75;4950212;29;20110;-91
2022/04/22 06:51:23;;;;;;;43.95;38.05;;;;;;;9.42;100.00;100998.16;4951103;29;20051;-89
2022/04/22 06:53:52;;;;;;;40.65;36.33;;;;;;;9.52;100.00;101011.09;4951012;29;20051;-89
2022/04/22 06:56:26;;;;;;;240.60;133.90;;;;;;;9.50;100.00;101007.81;4953273;29;20074;-89
2022/04/22 06:58:55;;;;;;;134.55;84.38;;;;;;;9.54;100.00;100993.16;4952825;29;20047;-88
2022/04/22 07:01:25;;;;;;;42.17;37.60;;;;;;;9.54;100.00;100995.81;4946453;28;20417;-88
2022/04/22 07:03:53;;;;;;;47.28;41.50;;;;;;;9.58;100.00;101003.19;4934605;29;20056;-89
2022/04/22 07:06:20;;;;;;;53.92;45.70;;;;;;;9.71;100.00;100983.88;4938594;29;20051;-89
2022/04/22 07:08:49;;;;;;;69.00;49.72;;;;;;;9.69;100.00;100977.97;4939254;29;20055;-89
2022/04/22 07:11:26;;;;;;;86.72;62.20;;;;;;;9.90;100.00;100989.56;4937197;29;20116;-89
2022/04/22 07:13:54;;;;;;;86.10;65.82;;;;;;;10.00;100.00;100982.06;4941450;29;20047;-89
2022/04/22 07:16:21;;;;;;;41.08;36.97;;;;;;;9.82;100.00;100978.06;4945904;29;20047;-89
2022/04/22 07:18:51;;;;;;;42.72;38.25;;;;;;;9.96;100.00;100968.34;4938284;29;20086;-90
2022/04/22 07:21:19;;;;;;;41.92;37.10;;;;;;;10.21;100.00;100973.19;4941987;29;20048;-89
2022/04/22 07:23:47;;;;;;;46.20;41.40;;;;;;;10.05;100.00;100975.16;4940101;29;20156;-89
2022/04/22 07:26:18;;;;;;;46.78;40.55;;;;;;;10.08;100.00;100966.78;4941712;29;20095;-89
2022/04/22 07:28:47;;;;;;;43.90;39.45;;;;;;;10.31;100.00;100982.44;4937042;29;20520;-89
2022/04/22 07:31:16;;;;;;;57.17;47.30;;;;;;;10.39;100.00;100970.03;4938259;29;20043;-90
2022/04/22 07:33:43;;;;;;;41.45;37.15;;;;;;;10.43;100.00;100976.56;4938925;29;20055;-91
2022/04/22 07:36:12;;;;;;;56.15;43.58;;;;;;;10.68;100.00;100960.91;4936320;29;20060;-89
2022/04/22 07:38:44;;;;;;;46.05;39.38;;;;;;;10.65;100.00;100954.19;4935774;29;20424;-89
2022/04/22 07:41:11;;;;;;;44.38;39.88;;;;;;;10.64;100.00;100943.75;4946184;29;20043;-89
2022/04/22 07:46:58;;;;;;;36.30;32.92;;;;;;;11.03;100.00;100923.56;4865677;29;20179;-90
2022/04/22 07:49:26;;;;;;;36.30;33.00;;;;;;;11.27;100.00;100911.50;4861643;29;20590;-89
2022/04/22 07:51:54;;;;;;;42.70;38.35;;;;;;;11.14;100.00;100907.03;4870416;29;20442;-93
2022/04/22 07:54:22;;;;;;;36.25;32.95;;;;;;;11.30;100.00;100900.47;4894543;29;20051;-90
2022/04/22 07:56:58;;;;;;;50.00;44.53;;;;;;;11.15;100.00;100895.34;4943459;29;20106;-88
2022/04/22 07:59:26;;;;;;;45.03;40.42;;;;;;;11.40;100.00;100885.69;4939853;29;20051;-89
2022/04/22 08:01:53;;;;;;;45.80;41.33;;;;;;;11.55;100.00;100882.81;4939113;28;20508;-90
2022/04/22 08:04:22;;;;;;;58.20;52.10;;;;;;;11.81;100.00;100881.94;4944558;29;20512;-90
2022/04/22 08:06:50;;;;;;;47.70;42.42;;;;;;;11.89;100.00;100865.78;4936997;29;20124;-89
2022/04/22 08:09:18;;;;;;;44.63;40.17;;;;;;;11.96;100.00;100860.41;4939217;29;20048;-90
2022/04/22 08:11:47;;;;;;;34.97;31.88;;;;;;;12.28;100.00;100852.47;4946682;29;20067;-90
2022/04/22 08:14:13;;;;;;;32.17;29.63;;;;;;;12.31;100.00;100838.72;4946592;29;20139;-89
2022/04/22 08:16:41;;;;;;;32.55;30.00;;;;;;;12.29;100.00;100825.63;4941264;28;20436;-89
2022/04/22 08:19:11;;;;;;;32.75;30.13;;;;;;;12.60;100.00;100822.13;4946504;29;20055;-89
2022/04/22 08:21:41;;;;;;;32.03;29.60;;;;;;;12.53;100.00;100812.56;4946014;29;20058;-89
2022/04/22 08:24:10;;;;;;;37.70;34.63;;;;;;;12.74;100.00;100793.53;4946130;29;20122;-88
2022/04/22 08:26:39;;;;;;;34.83;31.98;;;;;;;12.68;100.00;100797.09;4947166;29;20054;-87
2022/04/22 08:29:06;;;;;;;33.45;30.75;;;;;;;12.92;100.00;100800.78;4948008;29;20058;-86
2022/04/22 08:31:33;;;;;;;34.10;31.85;;;;;;;12.89;100.00;100789.72;4941909;29;20131;-87
2022/04/22 08:34:00;;;;;;;32.58;30.23;;;;;;;13.07;100.00;100800.41;4936348;29;20083;-89
2022/04/22 08:36:30;;;;;;;38.67;35.85;;;;;;;12.85;100.00;100789.34;4943688;29;20047;-88
2022/04/22 08:38:57;;;;;;;35.75;32.85;;;;;;;13.28;100.00;100791.19;4943875;29;20489;-87
2022/04/22 08:41:24;;;;;;;37.70;34.60;;;;;;;13.46;100.00;100796.56;4936494;29;20051;-88
2022/04/22 08:43:56;;;;;;;37.53;34.75;;;;;;;13.09;100.00;100786.88;4936892;29;20051;-86
2022/04/22 08:52:00;;;;;;;;;;;;;;;13.43;100.00;100798.84;4931316;29;20139;-85
2022/04/22 08:54:28;;;;;;;32.65;30.35;;;;;;;13.11;100.00;100784.81;4943743;28;19926;-87
2022/04/22 08:56:55;;;;;;;36.30;33.45;;;;;;;12.74;100.00;100782.06;4938937;29;20525;-87
2022/04/22 08:59:26;;;;;;;36.20;33.42;;;;;;;13.03;100.00;100784.03;4935491;29;20055;-87
2022/04/22 09:01:53;;;;;;;34.22;31.40;;;;;;;13.54;100.00;100774.06;4935002;29;20065;-86
2022/04/22 09:04:20;;;;;;;32.13;29.60;;;;;;;13.74;100.00;100763.97;4933307;29;20469;-86
2022/04/22 09:06:50;;;;;;;35.67;32.92;;;;;;;13.47;100.00;100760.81;4936519;29;20058;-86
2022/04/22 09:09:18;;;;;;;35.28;32.47;;;;;;;14.10;100.00;100756.91;4942328;29;20051;-86
2022/04/22 09:11:51;;;;;;;33.55;30.85;;;;;;;13.89;100.00;100750.22;4944438;29;20540;-89
2022/04/22 09:14:19;;;;;;;36.30;33.47;;;;;;;14.68;100.00;100751.94;4940581;29;20048;-88
2022/04/22 09:16:49;;;;;;;32.67;29.92;;;;;;;14.88;100.00;100745.16;4944512;29;20059;-87
2022/04/22 09:19:18;;;;;;;34.58;31.45;;;;;;;14.88;100.00;100750.50;4936845;29;20063;-87
2022/04/22 09:21:56;;;;;;;33.67;31.10;;;;;;;15.07;100.00;100740.50;4942198;29;20548;-87
2022/04/22 09:24:23;;;;;;;32.83;30.38;;;;;;;14.89;100.00;100748.66;4947557;29;20048;-88
2022/04/22 09:27:04;;;;;;;33.80;30.98;;;;;;;14.38;100.00;100742.09;4949658;28;20146;-91
2022/04/22 09:29:46;;;;;;;32.85;30.20;;;;;;;14.88;100.00;100730.97;4940088;29;20077;-88
2022/04/22 09:32:24;;;;;;;34.35;31.75;;;;;;;15.02;100.00;100719.00;4935838;29;20047;-88
2022/04/22 09:34:51;;;;;;;104.82;54.17;;;;;;;15.06;100.00;100720.13;4929510;29;20056;-89
2022/04/22 09:42:59;;;;;;;37.22;33.85;;;;;;;15.41;100.00;100718.44;4934158;29;20054;-88
2022/04/22 09:45:38;;;;;;;31.98;29.75;;;;;;;15.37;100.00;100715.44;4938701;29;20075;-88
2022/04/22 09:48:14;;;;;;;31.73;29.27;;;;;;;15.31;100.00;100711.00;4939737;29;20056;-90
2022/04/22 09:50:46;;;;;;;49.97;45.13;;;;;;;15.57;100.00;100718.47;4933445;29;20102;-90
2022/04/22 09:53:20;;;;;;;30.40;28.17;;;;;;;15.63;100.00;100716.72;4943225;29;20051;-90
2022/04/22 09:55:53;;;;;;;30.58;28.42;;;;;;;16.07;100.00;100710.81;4937772;29;20307;-89
2022/04/22 09:58:24;;;;;;;30.05;27.90;;;;;;;15.97;100.00;100703.44;4943757;29;20051;-89
2022/04/22 10:01:06;;;;;;;32.63;29.75;;;;;;;15.77;100.00;100685.16;4937521;28;20567;-89
2022/04/22 10:03:36;;;;;;;30.92;28.65;;;;;;;16.04;100.00;100677.31;4932487;29;20060;-89
2022/04/22 10:06:05;;;;;;;30.40;27.90;;;;;;;16.15;100.00;100695.16;4931437;29;20457;-90
2022/04/22 10:08:36;;;;;;;31.17;28.83;;;;;;;16.44;100.00;100705.81;4937576;29;20540;-89
2022/04/22 10:11:06;;;;;;;36.10;33.08;;;;;;;16.74;100.00;100704.63;4936000;29;20078;-89
2022/04/22 10:13:45;;;;;;;31.90;29.30;;;;;;;17.16;100.00;100695.03;4930285;29;20047;-89
2022/04/22 10:16:13;;;;;;;32.80;30.27;;;;;;;17.62;100.00;100684.78;4941373;29;20138;-90
2022/04/22 10:18:44;;;;;;;34.60;31.77;;;;;;;17.84;100.00;100683.94;4929274;29;20048;-92
2022/04/22 10:21:21;;;;;;;35.60;32.15;;;;;;;18.04;100.00;100686.81;4936616;29;20055;-90
2022/04/22 10:23:50;;;;;;;32.63;29.85;;;;;;;18.43;100.00;100675.03;4935538;29;20060;-89
2022/04/22 10:26:17;;;;;;;31.85;29.27;;;;;;;18.79;100.00;100683.31;4935643;29;20158;-89
2022/04/22 10:28:48;;;;;;;31.85;29.42;;;;;;;18.39;100.00;100677.38;4939154;29;20062;-88
2022/04/22 10:31:17;;;;;;;31.67;29.08;;;;;;;18.64;100.00;100674.06;4923796;29;20078;-89
2022/04/22 10:33:46;;;;;;;33.53;30.83;;;;;;;19.07;100.00;100680.22;4876475;28;20410;-88
2022/04/22 10:36:14;;;;;;;33.75;31.05;;;;;;;19.17;100.00;100682.13;4957346;23;20063;-85
2022/04/22 10:38:43;;;;;;;34.13;31.35;;;;;;;19.49;100.00;100683.88;4915560;29;20139;-82
2022/04/22 10:41:15;;;;;;;33.47;31.13;;;;;;;19.72;100.00;100680.69;4914922;29;20378;-84
2022/04/22 10:43:42;;;;;;;32.92;30.63;;;;;;;18.80;100.00;100664.22;4916360;29;20212;-84
2022/04/22 10:49:15;;;;;;;32.60;30.20;;;;;;;19.34;100.00;100671.97;4915235;29;20063;-83
2022/04/22 10:52:02;;;;;;;35.88;32.92;;;;;;;19.99;100.00;100666.97;4916918;29;20056;-82
2022/04/22 10:55:05;;;;;;;34.35;31.58;;;;;;;19.85;100.00;100652.44;4941067;23;20043;-88
2022/04/22 10:57:34;;;;;;;36.05;32.97;;;;;;;19.82;100.00;100647.56;4839977;28;20055;-88
2022/04/22 11:00:31;;;;;;;34.95;32.28;;;;;;;20.41;100.00;100635.38;4934841;29;20051;-90
2022/04/22 11:03:09;;;;;;;33.72;30.95;;;;;;;20.15;100.00;100638.09;4855615;29;20537;-89
2022/04/22 11:05:45;;;;;;;34.58;31.65;;;;;;;20.47;100.00;100635.09;4931090;29;20115;-90
2022/04/22 11:08:19;;;;;;;35.42;32.20;;;;;;;20.43;100.00;100649.41;4931140;29;20043;-90
2022/04/22 11:11:15;;;;;;;34.83;31.33;;;;;;;20.02;100.00;100655.63;4931487;29;20054;-90
2022/04/22 11:13:44;;;;;;;37.00;34.25;;;;;;;20.74;100.00;100645.56;4936212;29;20111;-91
2022/04/22 11:16:32;;;;;;;34.40;31.15;;;;;;;20.94;100.00;100647.38;4936249;29;20047;-90
2022/04/22 11:19:28;;;;;;;32.40;30.17;;;;;;;20.38;100.00;100650.22;4934822;29;20118;-93
2022/04/22 11:21:59;;;;;;;32.53;29.70;;;;;;;20.50;100.00;100642.63;4935414;29;20512;-90
2022/04/22 11:24:32;;;;;;;33.90;31.35;;;;;;;20.52;100.00;100640.50;4934770;29;20497;-91
2022/04/22 11:27:14;;;;;;;33.08;30.75;;;;;;;20.75;100.00;100636.38;4928613;29;20138;-91
2022/04/22 11:29:43;;;;;;;34.97;32.35;;;;;;;21.15;100.00;100637.28;4934614;29;20056;-91
2022/04/22 11:32:19;;;;;;;33.15;30.65;;;;;;;21.24;100.00;100629.38;4937487;29;20051;-91
2022/04/22 11:35:12;;;;;;;34.20;31.40;;;;;;;21.27;100.00;100618.03;4895916;29;20441;-92
2022/04/22 11:37:42;;;;;;;34.03;31.02;;;;;;;20.81;100.00;100624.47;4925452;29;20074;-92
2022/04/22 11:40:10;;;;;;;30.67;28.67;;;;;;;20.29;100.00;100614.88;4935893;29;20074;-90
2022/04/22 11:42:44;;;;;;;34.85;32.00;;;;;;;20.00;100.00;100603.91;4938246;29;20078;-91
2022/04/22 11:45:17;;;;;;;34.13;31.23;;;;;;;19.52;100.00;100602.53;4937135;29;20067;-91
2022/04/22 11:47:45;;;;;;;34.78;31.80;;;;;;;19.37;100.00;100587.16;4933637;29;20054;-92
2022/04/22 11:50:21;;;;;;;36.20;33.38;;;;;;;20.27;100.00;100573.94;4932991;29;20052;-90
2022/04/22 11:52:57;;;;;;;34.60;31.77;;;;;;;19.64;100.00;100562.66;4937068;29;20051;-90
2022/04/22 11:55:24;;;;;;;32.63;30.23;;;;;;;20.32;100.00;100549.63;4936373;29;20044;-91
2022/04/22 11:57:51;;;;;;;33.38;30.83;;;;;;;20.44;100.00;100553.91;4936333;29;20060;-91
2022/04/22 12:05:49;;;;;;;33.67;31.25;;;;;;;19.98;100.00;100557.53;4939098;29;20047;-91
2022/04/22 12:08:20;;;;;;;36.05;33.08;;;;;;;21.13;100.00;100550.34;4938539;29;20055;-89
2022/04/22 12:10:50;;;;;;;31.92;29.35;;;;;;;20.80;100.00;100552.69;4938659;29;20066;-89
2022/04/22 12:13:18;;;;;;;35.97;32.97;;;;;;;20.47;100.00;100551.47;4931029;29;20052;-93
2022/04/22 12:15:46;;;;;;;35.92;33.22;;;;;;;20.32;100.00;100551.50;4933321;29;20055;-90
2022/04/22 12:18:29;;;;;;;31.92;29.90;;;;;;;21.27;100.00;100551.34;4936478;29;20044;-87
2022/04/22 12:20:55;;;;;;;;;;;;;;;20.88;100.00;100564.81;4930970;29;20079;-87
2022/04/22 12:23:33;;;;;;;32.50;29.85;;;;;;;20.95;100.00;100556.41;4935251;29;19929;-88
2022/04/22 12:26:00;;;;;;;31.38;28.75;;;;;;;20.56;100.00;100555.22;4933962;29;20051;-89
2022/04/22 12:28:28;;;;;;;33.30;30.60;;;;;;;20.49;100.00;100549.31;4935988;29;20066;-87